No particular awareness of the weather is required.    There are no Weather-warnings


Meteo18 Weather Cam more information Meteo18 Weather Cam


Thunder radar more information blitzortung!


Rain radar more information rain snow radar


Visit our other weather sites:

Template documentation
and downloads

And another site



Weather Underground History page Text

Daily Summary for May 14, 2016 Units:  Metric    English   Both
« Previous Day
Next Day »
Daily Weekly Monthly Yearly Custom
  High: Low: Average:
Temperature: 12.4 °C 6.9 °C 10.3 °C
Dew Point: 11.8 °C 5.8 °C 9.1 °C
Humidity: 97 % 83 % 92 %
Wind Speed: 14.5 km/h 0.0 km/h 3.2 km/h
Wind Gust: 19.3 km/h - -
Wind:- - NE
Pressure: 1019.9 hPa 1007.3 hPa -
Precipitation: 1.5 mm    
Historical Graphs
 
 
Tabular Data for May 14, 2016
Time Temperature Dew Point Pressure Wind Wind Speed Wind Gust Humidity Rainfall Rate (Hourly)
00:02 12.0 °C 11.4 °C 1007.3 hPa Calm   1.6 km/h 96 % 0.0 mm
00:12 12.1 °C 11.6 °C 1007.3 hPa Calm   1.6 km/h 97 % 0.5 mm
00:17 12.2 °C 11.6 °C 1007.3 hPa Calm   3.2 km/h 96 % 0.5 mm
00:22 12.2 °C 11.6 °C 1007.7 hPa Calm   3.2 km/h 96 % 0.8 mm
00:27 12.2 °C 11.6 °C 1007.7 hPa Calm   3.2 km/h 96 % 0.8 mm
00:32 12.2 °C 11.6 °C 1007.7 hPa ENE 1.6 km/h 6.4 km/h 96 % 0.8 mm
00:37 12.3 °C 11.7 °C 1007.7 hPa East 3.2 km/h 8.0 km/h 96 % 0.8 mm
00:42 12.3 °C 11.7 °C 1008.0 hPa Calm   8.0 km/h 96 % 0.8 mm
00:52 12.3 °C 11.5 °C 1008.0 hPa Calm   6.4 km/h 95 % 1.0 mm
01:02 12.3 °C 11.5 °C 1008.4 hPa Calm   3.2 km/h 95 % 1.3 mm
01:07 12.3 °C 11.5 °C 1008.4 hPa Calm   4.8 km/h 95 % 1.3 mm
01:12 12.3 °C 11.5 °C 1008.4 hPa Calm   4.8 km/h 95 % 0.5 mm
01:17 12.3 °C 11.5 °C 1008.4 hPa Calm   3.2 km/h 95 % 0.5 mm
01:22 12.3 °C 11.5 °C 1008.4 hPa Calm   3.2 km/h 95 % 0.5 mm
01:27 12.3 °C 11.7 °C 1008.4 hPa Calm   1.6 km/h 96 % 0.5 mm
01:32 12.4 °C 11.8 °C 1008.4 hPa Calm   1.6 km/h 96 % 0.5 mm
01:37 12.4 °C 11.8 °C 1008.4 hPa Calm   1.6 km/h 96 % 0.5 mm
01:42 12.4 °C 11.8 °C 1008.4 hPa Calm   1.6 km/h 96 % 0.5 mm
01:47 12.3 °C 11.7 °C 1008.7 hPa Calm     96 % 0.3 mm
01:57 12.3 °C 11.5 °C 1008.4 hPa Calm     95 % 0.0 mm
02:02 12.2 °C 11.4 °C 1008.7 hPa Calm     95 % 0.0 mm
02:07 12.1 °C 11.5 °C 1008.7 hPa Calm     96 % 0.0 mm
02:12 12.1 °C 11.5 °C 1008.7 hPa Calm     96 % 0.0 mm
02:17 12.1 °C 11.5 °C 1008.7 hPa Calm     96 % 0.0 mm
02:27 12.2 °C 11.6 °C 1008.7 hPa Calm     96 % 0.0 mm
02:32 12.2 °C 11.6 °C 1008.7 hPa Calm     96 % 0.0 mm
02:37 12.2 °C 11.6 °C 1009.0 hPa Calm   3.2 km/h 96 % 0.0 mm
02:42 12.3 °C 11.7 °C 1009.0 hPa Calm   3.2 km/h 96 % 0.0 mm
02:52 12.4 °C 11.8 °C 1009.0 hPa Calm   3.2 km/h 96 % 0.0 mm
02:57 12.4 °C 11.8 °C 1008.7 hPa Calm   3.2 km/h 96 % 0.0 mm
03:02 12.4 °C 11.8 °C 1008.7 hPa Calm   3.2 km/h 96 % 0.0 mm
03:07 12.4 °C 11.8 °C 1008.7 hPa Calm   3.2 km/h 96 % 0.0 mm
03:12 12.4 °C 11.8 °C 1008.7 hPa Calm   3.2 km/h 96 % 0.0 mm
03:17 12.4 °C 11.8 °C 1008.4 hPa Calm   1.6 km/h 96 % 0.0 mm
03:22 12.3 °C 11.7 °C 1008.4 hPa Calm   3.2 km/h 96 % 0.0 mm
03:27 12.2 °C 11.4 °C 1008.4 hPa Calm   3.2 km/h 95 % 0.0 mm
03:32 12.1 °C 11.5 °C 1008.4 hPa Calm   3.2 km/h 96 % 0.0 mm
03:37 12.1 °C 11.5 °C 1008.4 hPa Calm   4.8 km/h 96 % 0.0 mm
03:42 11.9 °C 11.3 °C 1008.4 hPa East 1.6 km/h 4.8 km/h 96 % 0.0 mm
03:52 11.8 °C 11.2 °C 1008.4 hPa ENE 1.6 km/h 4.8 km/h 96 % 0.0 mm
03:57 11.8 °C 11.2 °C 1008.7 hPa ENE 4.8 km/h 4.8 km/h 96 % 0.0 mm
04:02 11.8 °C 11.2 °C 1008.7 hPa ENE 3.2 km/h 6.4 km/h 96 % 0.0 mm
04:07 11.7 °C 11.1 °C 1008.7 hPa NE 1.6 km/h 6.4 km/h 96 % 0.0 mm
04:12 11.6 °C 11.0 °C 1008.7 hPa Calm   6.4 km/h 96 % 0.0 mm
04:17 11.6 °C 11.0 °C 1008.7 hPa NNE 1.6 km/h 4.8 km/h 96 % 0.0 mm
04:22 11.6 °C 11.0 °C 1008.7 hPa Calm   4.8 km/h 96 % 0.0 mm
04:27 11.4 °C 10.8 °C 1009.0 hPa Calm   6.4 km/h 96 % 0.0 mm
04:32 11.4 °C 10.8 °C 1009.0 hPa Calm   6.4 km/h 96 % 0.0 mm
04:37 11.2 °C 10.4 °C 1009.4 hPa NE 6.4 km/h 6.4 km/h 95 % 0.0 mm
04:42 11.1 °C 10.3 °C 1009.4 hPa NE 1.6 km/h 8.0 km/h 95 % 0.0 mm
04:47 11.0 °C 10.2 °C 1009.4 hPa NE 6.4 km/h 8.0 km/h 95 % 0.0 mm
04:52 10.9 °C 10.1 °C 1009.4 hPa Calm   8.0 km/h 95 % 0.0 mm
05:02 10.8 °C 10.2 °C 1009.4 hPa ENE 1.6 km/h 8.0 km/h 96 % 0.0 mm
05:07 10.8 °C 10.2 °C 1009.4 hPa Calm   6.4 km/h 96 % 0.0 mm
05:12 10.8 °C 10.0 °C 1009.4 hPa NE 4.8 km/h 6.4 km/h 95 % 0.0 mm
05:17 10.8 °C 10.0 °C 1009.4 hPa East 1.6 km/h 9.7 km/h 95 % 0.0 mm
05:22 10.7 °C 9.9 °C 1009.4 hPa East 8.0 km/h 9.7 km/h 95 % 0.3 mm
05:27 10.7 °C 9.9 °C 1009.4 hPa NNE 6.4 km/h 9.7 km/h 95 % 0.3 mm
05:32 10.7 °C 9.9 °C 1009.4 hPa NE 6.4 km/h 9.7 km/h 95 % 0.3 mm
05:37 10.6 °C 9.8 °C 1009.7 hPa NNE 6.4 km/h 12.9 km/h 95 % 0.3 mm
05:42 10.6 °C 9.8 °C 1009.7 hPa ENE 3.2 km/h 12.9 km/h 95 % 0.3 mm
05:47 10.5 °C 9.7 °C 1009.7 hPa NE 9.7 km/h 11.3 km/h 95 % 0.3 mm
05:52 10.5 °C 9.7 °C 1009.7 hPa NE 1.6 km/h 11.3 km/h 95 % 0.3 mm
05:57 10.5 °C 9.7 °C 1009.7 hPa NNE 4.8 km/h 14.5 km/h 95 % 0.3 mm
06:02 10.4 °C 9.6 °C 1009.7 hPa NE 3.2 km/h 14.5 km/h 95 % 0.3 mm
06:12 10.4 °C 9.8 °C 1009.7 hPa NE 3.2 km/h 14.5 km/h 96 % 0.3 mm
06:17 10.4 °C 9.8 °C 1010.0 hPa NE 4.8 km/h 14.5 km/h 96 % 0.3 mm
06:22 10.3 °C 9.7 °C 1010.0 hPa SE 3.2 km/h 14.5 km/h 96 % 0.0 mm
06:32 10.3 °C 9.7 °C 1010.0 hPa NNE 8.0 km/h 16.1 km/h 96 % 0.0 mm
06:42 10.3 °C 9.7 °C 1010.0 hPa ENE 4.8 km/h 16.1 km/h 96 % 0.0 mm
06:47 10.3 °C 9.7 °C 1010.0 hPa NE 6.4 km/h 19.3 km/h 96 % 0.0 mm
06:52 10.3 °C 9.7 °C 1010.4 hPa NE 6.4 km/h 19.3 km/h 96 % 0.0 mm
07:02 10.3 °C 9.7 °C 1010.4 hPa North 3.2 km/h 16.1 km/h 96 % 0.0 mm
07:07 10.3 °C 9.7 °C 1010.7 hPa North 8.0 km/h 16.1 km/h 96 % 0.0 mm
07:12 10.2 °C 9.6 °C 1010.7 hPa NE 3.2 km/h 16.1 km/h 96 % 0.0 mm
07:17 10.2 °C 9.6 °C 1010.7 hPa NNE 8.0 km/h 11.3 km/h 96 % 0.0 mm
07:22 10.1 °C 9.5 °C 1010.7 hPa ENE 4.8 km/h 11.3 km/h 96 % 0.0 mm
07:27 10.1 °C 9.5 °C 1010.7 hPa NE 9.7 km/h 16.1 km/h 96 % 0.0 mm
07:32 10.0 °C 9.4 °C 1010.7 hPa ESE 1.6 km/h 16.1 km/h 96 % 0.0 mm
07:37 10.0 °C 9.4 °C 1011.1 hPa NE 9.7 km/h 14.5 km/h 96 % 0.0 mm
07:42 10.1 °C 9.5 °C 1011.1 hPa ENE 9.7 km/h 14.5 km/h 96 % 0.0 mm
07:47 9.9 °C 9.3 °C 1011.1 hPa NE 3.2 km/h 12.9 km/h 96 % 0.0 mm
07:52 9.8 °C 9.2 °C 1011.1 hPa NE 6.4 km/h 12.9 km/h 96 % 0.0 mm
07:57 9.8 °C 9.2 °C 1011.4 hPa ENE 8.0 km/h 16.1 km/h 96 % 0.0 mm
08:02 9.8 °C 9.2 °C 1011.4 hPa NE 8.0 km/h 16.1 km/h 96 % 0.0 mm
08:07 9.8 °C 9.2 °C 1011.4 hPa East 12.9 km/h 14.5 km/h 96 % 0.0 mm
08:12 9.8 °C 9.2 °C 1011.4 hPa ENE 3.2 km/h 14.5 km/h 96 % 0.0 mm
08:17 9.8 °C 9.3 °C 1011.7 hPa NE 4.8 km/h 14.5 km/h 97 % 0.0 mm
08:22 9.8 °C 9.3 °C 1011.7 hPa NE 8.0 km/h 14.5 km/h 97 % 0.0 mm
08:27 9.7 °C 9.2 °C 1011.7 hPa NE 8.0 km/h 12.9 km/h 97 % 0.0 mm
08:32 9.7 °C 9.1 °C 1011.7 hPa NE 3.2 km/h 12.9 km/h 96 % 0.0 mm
08:37 9.6 °C 9.0 °C 1012.1 hPa East 3.2 km/h 12.9 km/h 96 % 0.0 mm
08:42 9.6 °C 9.0 °C 1012.1 hPa ENE 8.0 km/h 12.9 km/h 96 % 0.0 mm
08:47 9.6 °C 9.0 °C 1012.1 hPa NE 3.2 km/h 14.5 km/h 96 % 0.0 mm
08:52 9.4 °C 8.8 °C 1012.1 hPa NE 8.0 km/h 14.5 km/h 96 % 0.0 mm
08:57 9.4 °C 8.8 °C 1012.4 hPa SE 4.8 km/h 14.5 km/h 96 % 0.0 mm
09:02 9.3 °C 8.7 °C 1012.4 hPa NE 9.7 km/h 14.5 km/h 96 % 0.0 mm
09:07 9.2 °C 8.6 °C 1012.4 hPa NNE 6.4 km/h 16.1 km/h 96 % 0.0 mm
09:12 9.2 °C 8.6 °C 1012.8 hPa NE 6.4 km/h 16.1 km/h 96 % 0.0 mm
09:17 9.2 °C 8.6 °C 1012.8 hPa NE 3.2 km/h 16.1 km/h 96 % 0.0 mm
09:22 9.2 °C 8.6 °C 1012.8 hPa NE 6.4 km/h 16.1 km/h 96 % 0.0 mm
09:27 9.2 °C 8.6 °C 1012.8 hPa NE 11.3 km/h 11.3 km/h 96 % 0.0 mm
09:32 9.2 °C 8.6 °C 1012.8 hPa ENE 8.0 km/h 11.3 km/h 96 % 0.0 mm
09:42 9.2 °C 8.6 °C 1013.1 hPa ENE 4.8 km/h 12.9 km/h 96 % 0.0 mm
09:47 9.1 °C 8.5 °C 1013.1 hPa NE 3.2 km/h 12.9 km/h 96 % 0.0 mm
09:52 9.1 °C 8.5 °C 1013.1 hPa NNE 4.8 km/h 12.9 km/h 96 % 0.0 mm
09:57 9.1 °C 8.5 °C 1013.1 hPa NE 4.8 km/h 16.1 km/h 96 % 0.0 mm
10:02 9.1 °C 8.5 °C 1013.1 hPa NE 9.7 km/h 16.1 km/h 96 % 0.0 mm
10:12 9.1 °C 8.5 °C 1013.4 hPa ENE 4.8 km/h 14.5 km/h 96 % 0.0 mm
10:17 9.1 °C 8.5 °C 1013.4 hPa Calm   14.5 km/h 96 % 0.0 mm
10:22 9.1 °C 8.5 °C 1013.4 hPa East 14.5 km/h 14.5 km/h 96 % 0.0 mm
10:27 9.0 °C 8.2 °C 1013.4 hPa ENE 4.8 km/h 14.5 km/h 95 % 0.0 mm
10:32 9.0 °C 8.2 °C 1013.4 hPa NE 1.6 km/h 14.5 km/h 95 % 0.0 mm
10:37 9.1 °C 8.3 °C 1013.8 hPa NE 4.8 km/h 14.5 km/h 95 % 0.0 mm
10:42 9.3 °C 8.5 °C 1013.8 hPa NNE 8.0 km/h 14.5 km/h 95 % 0.0 mm
10:47 9.3 °C 8.5 °C 1013.8 hPa NE 6.4 km/h 11.3 km/h 95 % 0.0 mm
10:52 9.3 °C 8.4 °C 1013.8 hPa NNE 9.7 km/h 11.3 km/h 94 % 0.0 mm
10:57 9.4 °C 8.5 °C 1013.8 hPa NE 6.4 km/h 14.5 km/h 94 % 0.0 mm
11:02 9.4 °C 8.3 °C 1014.1 hPa ENE 3.2 km/h 14.5 km/h 93 % 0.0 mm
11:12 9.4 °C 8.5 °C 1014.1 hPa ENE 4.8 km/h 14.5 km/h 94 % 0.0 mm
11:17 9.4 °C 8.3 °C 1014.1 hPa East 3.2 km/h 14.5 km/h 93 % 0.0 mm
11:22 9.6 °C 8.5 °C 1014.1 hPa ENE 3.2 km/h 14.5 km/h 93 % 0.0 mm
11:32 9.6 °C 8.5 °C 1014.4 hPa East 8.0 km/h 14.5 km/h 93 % 0.0 mm
11:37 9.6 °C 8.5 °C 1014.4 hPa NE 4.8 km/h 14.5 km/h 93 % 0.0 mm
11:42 9.7 °C 8.6 °C 1014.4 hPa East 8.0 km/h 11.3 km/h 93 % 0.0 mm
11:47 9.7 °C 8.6 °C 1014.4 hPa ESE 3.2 km/h 12.9 km/h 93 % 0.0 mm
11:57 9.7 °C 8.5 °C 1014.4 hPa ENE 9.7 km/h 12.9 km/h 92 % 0.0 mm
12:02 9.7 °C 8.5 °C 1014.8 hPa NNE 3.2 km/h 9.7 km/h 92 % 0.0 mm
12:12 9.8 °C 8.6 °C 1014.8 hPa NNE 4.8 km/h 9.7 km/h 92 % 0.0 mm
12:17 9.8 °C 8.6 °C 1014.8 hPa ENE 1.6 km/h 9.7 km/h 92 % 0.0 mm
12:22 9.9 °C 8.7 °C 1014.8 hPa NE 3.2 km/h 9.7 km/h 92 % 0.0 mm
12:27 10.1 °C 8.7 °C 1014.8 hPa NE 1.6 km/h 9.7 km/h 91 % 0.0 mm
12:37 10.2 °C 8.8 °C 1015.1 hPa NNE 6.4 km/h 14.5 km/h 91 % 0.0 mm
12:42 10.1 °C 8.7 °C 1015.1 hPa NE 6.4 km/h 14.5 km/h 91 % 0.0 mm
12:47 10.1 °C 8.7 °C 1015.1 hPa NNE 6.4 km/h 9.7 km/h 91 % 0.0 mm
12:52 10.3 °C 8.9 °C 1015.1 hPa NE 3.2 km/h 9.7 km/h 91 % 0.0 mm
12:57 10.4 °C 8.8 °C 1015.5 hPa NE 6.4 km/h 9.7 km/h 90 % 0.0 mm
13:02 10.4 °C 8.7 °C 1015.5 hPa NE 4.8 km/h 9.7 km/h 89 % 0.0 mm
13:07 10.7 °C 9.0 °C 1015.1 hPa NE 3.2 km/h 9.7 km/h 89 % 0.0 mm
13:12 10.9 °C 9.2 °C 1015.1 hPa NNE 4.8 km/h 11.3 km/h 89 % 0.0 mm
13:17 11.0 °C 8.9 °C 1015.5 hPa ENE 4.8 km/h 11.3 km/h 87 % 0.0 mm
13:22 10.9 °C 9.0 °C 1015.5 hPa Calm   11.3 km/h 88 % 0.0 mm
13:32 11.2 °C 9.3 °C 1015.5 hPa NE 3.2 km/h 11.3 km/h 88 % 0.0 mm
13:37 11.3 °C 9.0 °C 1015.5 hPa NE 3.2 km/h 8.0 km/h 86 % 0.0 mm
13:42 11.6 °C 9.3 °C 1015.5 hPa ESE 3.2 km/h 12.9 km/h 86 % 0.0 mm
13:52 11.5 °C 9.1 °C 1015.5 hPa Calm   9.7 km/h 85 % 0.0 mm
14:02 11.6 °C 9.3 °C 1015.5 hPa NE 1.6 km/h 9.7 km/h 86 % 0.0 mm
14:12 11.6 °C 9.2 °C 1015.5 hPa NE 4.8 km/h 6.4 km/h 85 % 0.0 mm
14:17 11.6 °C 9.3 °C 1015.5 hPa NE 4.8 km/h 11.3 km/h 86 % 0.0 mm
14:22 11.6 °C 9.2 °C 1015.5 hPa NE 3.2 km/h 11.3 km/h 85 % 0.0 mm
14:27 11.6 °C 9.5 °C 1015.5 hPa NE 4.8 km/h 9.7 km/h 87 % 0.0 mm
14:32 11.4 °C 9.1 °C 1015.5 hPa East 3.2 km/h 9.7 km/h 86 % 0.0 mm
14:37 11.4 °C 9.1 °C 1015.5 hPa ENE 3.2 km/h 9.7 km/h 86 % 0.0 mm
14:42 11.5 °C 9.4 °C 1015.5 hPa NE 1.6 km/h 9.7 km/h 87 % 0.0 mm
14:52 11.5 °C 9.2 °C 1015.5 hPa ENE 8.0 km/h 9.7 km/h 86 % 0.0 mm
14:57 11.5 °C 9.4 °C 1015.8 hPa NE 8.0 km/h 9.7 km/h 87 % 0.0 mm
15:02 11.5 °C 9.4 °C 1015.8 hPa ENE 4.8 km/h 9.7 km/h 87 % 0.0 mm
15:12 11.6 °C 9.3 °C 1015.8 hPa NNE 3.2 km/h 9.7 km/h 86 % 0.0 mm
15:17 11.4 °C 9.1 °C 1015.8 hPa NE 4.8 km/h 9.7 km/h 86 % 0.0 mm
15:22 11.4 °C 9.1 °C 1015.8 hPa ENE 4.8 km/h 9.7 km/h 86 % 0.0 mm
15:32 11.3 °C 9.0 °C 1015.8 hPa NE 6.4 km/h 12.9 km/h 86 % 0.0 mm
15:42 11.2 °C 8.9 °C 1015.8 hPa NE 4.8 km/h 12.9 km/h 86 % 0.0 mm
15:52 11.2 °C 9.1 °C 1016.1 hPa NNE 6.4 km/h 14.5 km/h 87 % 0.0 mm
15:57 11.2 °C 9.1 °C 1016.1 hPa Calm   14.5 km/h 87 % 0.0 mm
16:02 11.1 °C 9.0 °C 1016.1 hPa NNE 9.7 km/h 12.9 km/h 87 % 0.0 mm
16:07 11.0 °C 8.9 °C 1016.1 hPa NE 4.8 km/h 12.9 km/h 87 % 0.0 mm
16:12 11.1 °C 9.0 °C 1016.1 hPa NE 8.0 km/h 12.9 km/h 87 % 0.0 mm
16:22 11.0 °C 8.9 °C 1016.1 hPa ENE 4.8 km/h 12.9 km/h 87 % 0.0 mm
16:37 11.1 °C 8.8 °C 1016.1 hPa NE 4.8 km/h 14.5 km/h 86 % 0.0 mm
16:42 11.1 °C 8.8 °C 1016.1 hPa NNE 4.8 km/h 14.5 km/h 86 % 0.0 mm
16:52 10.9 °C 8.5 °C 1016.1 hPa NE 4.8 km/h 11.3 km/h 85 % 0.0 mm
16:57 10.9 °C 8.6 °C 1016.1 hPa ENE 3.2 km/h 12.9 km/h 86 % 0.0 mm
17:02 10.9 °C 8.6 °C 1016.5 hPa ENE 3.2 km/h 12.9 km/h 86 % 0.0 mm
17:12 10.9 °C 8.6 °C 1016.5 hPa NNE 1.6 km/h 11.3 km/h 86 % 0.0 mm
17:22 10.9 °C 8.6 °C 1016.5 hPa NNE 3.2 km/h 14.5 km/h 86 % 0.0 mm
17:32 10.9 °C 8.6 °C 1016.5 hPa ESE 3.2 km/h 14.5 km/h 86 % 0.0 mm
17:37 10.9 °C 8.5 °C 1016.5 hPa NE 3.2 km/h 12.9 km/h 85 % 0.0 mm
17:42 10.9 °C 8.5 °C 1016.5 hPa NNE 8.0 km/h 12.9 km/h 85 % 0.0 mm
17:47 10.9 °C 8.3 °C 1016.5 hPa NE 4.8 km/h 9.7 km/h 84 % 0.0 mm
17:52 10.9 °C 8.5 °C 1016.8 hPa NNE 11.3 km/h 11.3 km/h 85 % 0.0 mm
17:57 10.8 °C 8.4 °C 1016.8 hPa ENE 6.4 km/h 14.5 km/h 85 % 0.0 mm
18:02 10.8 °C 8.6 °C 1016.8 hPa NNE 4.8 km/h 14.5 km/h 86 % 0.0 mm
18:12 10.8 °C 8.6 °C 1016.8 hPa NNE 3.2 km/h 12.9 km/h 86 % 0.0 mm
18:17 10.8 °C 8.2 °C 1016.8 hPa NNE 4.8 km/h 12.9 km/h 84 % 0.0 mm
18:22 10.8 °C 8.4 °C 1016.8 hPa NE 4.8 km/h 9.7 km/h 85 % 0.0 mm
18:27 10.8 °C 8.4 °C 1016.8 hPa NNE 1.6 km/h 9.7 km/h 85 % 0.0 mm
18:32 10.7 °C 8.3 °C 1017.2 hPa NE 6.4 km/h 9.7 km/h 85 % 0.0 mm
18:37 10.7 °C 8.3 °C 1017.2 hPa ENE 4.8 km/h 9.7 km/h 85 % 0.0 mm
18:42 10.7 °C 8.3 °C 1017.2 hPa NNE 1.6 km/h 9.7 km/h 85 % 0.0 mm
18:47 10.7 °C 8.3 °C 1017.2 hPa NE 3.2 km/h 9.7 km/h 85 % 0.0 mm
18:52 10.6 °C 8.0 °C 1017.2 hPa ESE 1.6 km/h 9.7 km/h 84 % 0.0 mm
18:57 10.6 °C 8.2 °C 1017.2 hPa Calm   9.7 km/h 85 % 0.0 mm
19:02 10.6 °C 8.0 °C 1017.2 hPa NE 3.2 km/h 8.0 km/h 84 % 0.0 mm
19:12 10.6 °C 8.0 °C 1017.2 hPa ENE 3.2 km/h 8.0 km/h 84 % 0.0 mm
19:17 10.4 °C 8.0 °C 1017.2 hPa NNE 3.2 km/h 6.4 km/h 85 % 0.0 mm
19:22 10.4 °C 8.2 °C 1017.2 hPa NE 1.6 km/h 6.4 km/h 86 % 0.0 mm
19:32 10.3 °C 8.1 °C 1017.5 hPa ENE 1.6 km/h 9.7 km/h 86 % 0.0 mm
19:37 10.3 °C 8.2 °C 1017.5 hPa East 1.6 km/h 9.7 km/h 87 % 0.0 mm
19:42 10.3 °C 8.1 °C 1017.5 hPa East 3.2 km/h 9.7 km/h 86 % 0.0 mm
19:52 10.1 °C 7.7 °C 1017.8 hPa NNE 1.6 km/h 11.3 km/h 85 % 0.0 mm
20:02 10.0 °C 7.6 °C 1017.8 hPa Calm   9.7 km/h 85 % 0.0 mm
20:07 9.9 °C 7.5 °C 1017.8 hPa NE 1.6 km/h 9.7 km/h 85 % 0.0 mm
20:17 9.8 °C 7.2 °C 1017.8 hPa Calm   9.7 km/h 84 % 0.0 mm
20:22 9.8 °C 7.1 °C 1017.8 hPa NE 1.6 km/h 9.7 km/h 83 % 0.0 mm
20:27 9.7 °C 7.0 °C 1018.2 hPa Calm   9.7 km/h 83 % 0.0 mm
20:32 9.7 °C 7.1 °C 1017.8 hPa NE 3.2 km/h 8.0 km/h 84 % 0.0 mm
20:42 9.6 °C 7.2 °C 1018.2 hPa Calm   6.4 km/h 85 % 0.0 mm
20:47 9.6 °C 7.4 °C 1018.2 hPa NNE 1.6 km/h 6.4 km/h 86 % 0.0 mm
20:52 9.5 °C 7.3 °C 1018.2 hPa Calm   3.2 km/h 86 % 0.0 mm
21:02 9.4 °C 7.2 °C 1018.2 hPa Calm   3.2 km/h 86 % 0.0 mm
21:07 9.3 °C 7.1 °C 1018.2 hPa Calm   3.2 km/h 86 % 0.0 mm
21:12 9.2 °C 7.0 °C 1018.2 hPa Calm   3.2 km/h 86 % 0.0 mm
21:17 8.9 °C 6.9 °C 1018.2 hPa Calm   3.2 km/h 87 % 0.0 mm
21:22 8.5 °C 6.6 °C 1018.2 hPa Calm   1.6 km/h 88 % 0.0 mm
21:32 7.8 °C 6.3 °C 1018.5 hPa Calm     90 % 0.0 mm
21:37 7.6 °C 6.1 °C 1018.5 hPa Calm     90 % 0.0 mm
21:42 7.3 °C 5.9 °C 1018.5 hPa Calm     91 % 0.0 mm
21:47 7.1 °C 5.9 °C 1018.8 hPa Calm     92 % 0.0 mm
21:52 6.9 °C 5.8 °C 1018.8 hPa Calm     93 % 0.0 mm
21:57 6.9 °C 5.8 °C 1018.8 hPa Calm     93 % 0.0 mm
22:02 6.9 °C 6.0 °C 1018.8 hPa Calm     94 % 0.0 mm
22:12 7.0 °C 6.1 °C 1019.2 hPa Calm     94 % 0.0 mm
22:17 7.1 °C 6.4 °C 1019.2 hPa Calm     95 % 0.0 mm
22:22 7.3 °C 6.6 °C 1019.2 hPa Calm     95 % 0.0 mm
22:27 7.3 °C 6.6 °C 1019.2 hPa Calm     95 % 0.0 mm
22:32 7.4 °C 6.7 °C 1019.5 hPa Calm     95 % 0.0 mm
22:37 7.5 °C 6.8 °C 1019.5 hPa Calm     95 % 0.0 mm
22:47 7.6 °C 6.9 °C 1019.5 hPa Calm     95 % 0.0 mm
22:52 7.6 °C 6.7 °C 1019.5 hPa Calm     94 % 0.0 mm
22:57 7.6 °C 6.7 °C 1019.5 hPa Calm     94 % 0.0 mm
23:02 7.6 °C 6.7 °C 1019.5 hPa Calm     94 % 0.0 mm
23:07 7.6 °C 6.7 °C 1019.5 hPa Calm     94 % 0.0 mm
23:12 7.7 °C 6.9 °C 1019.5 hPa Calm     95 % 0.0 mm
23:17 7.7 °C 6.8 °C 1019.9 hPa Calm     94 % 0.0 mm
23:22 7.8 °C 6.9 °C 1019.5 hPa Calm   1.6 km/h 94 % 0.0 mm
23:32 7.9 °C 6.8 °C 1019.9 hPa Calm   1.6 km/h 93 % 0.0 mm
23:37 8.0 °C 6.9 °C 1019.9 hPa Calm   1.6 km/h 93 % 0.0 mm
23:42 8.0 °C 6.8 °C 1019.9 hPa Calm   1.6 km/h 92 % 0.0 mm
23:52 8.0 °C 6.8 °C 1019.9 hPa Calm   1.6 km/h 92 % 0.0 mm
23:57 8.0 °C 6.8 °C 1019.9 hPa Calm   1.6 km/h 92 % 0.0 mm
Meteo18
Compliments of Weather Underground - 4 mb

Script developed by  Jim McMurry - jmcmurry@mwt.net Adapted for the template by  Wim van der Kuil - Leuven-Template.eu

You find our weather info also at:

European Weather Network

Weather Underground

Equipment we use:

Weather-station
Davis Vue

Weather-program
Meteohub

Weather-server
Raspberry PI 2 B+

Provider
1 and 1

Davis Vue

Meteohub

Raspberry PI 2 B+

1 and 1